sensor_id;sensor_type;location;lat;lon;timestamp;P1;durP1;ratioP1;P2;durP2;ratioP2
19643;SDS011;9970;-36.854;174.870;2022-11-20T00:01:52;3.80;;;3.80;;
19643;SDS011;9970;-36.854;174.870;2022-11-20T00:04:25;3.70;;;3.70;;
19643;SDS011;9970;-36.854;174.870;2022-11-20T00:06:58;3.60;;;3.60;;
19643;SDS011;9970;-36.854;174.870;2022-11-20T00:09:32;3.40;;;3.40;;
19643;SDS011;9970;-36.854;174.870;2022-11-20T00:12:05;3.40;;;3.40;;
19643;SDS011;9970;-36.854;174.870;2022-11-20T00:14:38;3.50;;;3.50;;
19643;SDS011;9970;-36.854;174.870;2022-11-20T00:17:11;3.00;;;3.00;;
19643;SDS011;9970;-36.854;174.870;2022-11-20T00:19:44;2.77;;;2.77;;
19643;SDS011;9970;-36.854;174.870;2022-11-20T00:22:17;2.80;;;2.80;;
19643;SDS011;9970;-36.854;174.870;2022-11-20T00:24:50;2.40;;;2.40;;
19643;SDS011;9970;-36.854;174.870;2022-11-20T00:27:23;2.40;;;2.40;;
19643;SDS011;9970;-36.854;174.870;2022-11-20T00:29:56;2.50;;;2.50;;
19643;SDS011;9970;-36.854;174.870;2022-11-20T00:32:29;2.60;;;2.60;;
19643;SDS011;9970;-36.854;174.870;2022-11-20T00:35:02;2.70;;;2.70;;
19643;SDS011;9970;-36.854;174.870;2022-11-20T00:37:35;2.60;;;2.60;;
19643;SDS011;9970;-36.854;174.870;2022-11-20T00:40:09;2.50;;;2.50;;
19643;SDS011;9970;-36.854;174.870;2022-11-20T00:42:42;2.53;;;2.53;;
19643;SDS011;9970;-36.854;174.870;2022-11-20T00:45:15;2.50;;;2.50;;
19643;SDS011;9970;-36.854;174.870;2022-11-20T00:47:48;2.80;;;2.80;;
19643;SDS011;9970;-36.854;174.870;2022-11-20T00:50:21;2.63;;;2.63;;
19643;SDS011;9970;-36.854;174.870;2022-11-20T00:52:55;2.73;;;2.73;;
19643;SDS011;9970;-36.854;174.870;2022-11-20T00:55:28;2.80;;;2.80;;
19643;SDS011;9970;-36.854;174.870;2022-11-20T00:58:01;2.90;;;2.90;;
19643;SDS011;9970;-36.854;174.870;2022-11-20T01:00:35;3.20;;;3.20;;
19643;SDS011;9970;-36.854;174.870;2022-11-20T01:03:08;3.20;;;3.20;;
19643;SDS011;9970;-36.854;174.870;2022-11-20T01:05:41;3.10;;;3.10;;
19643;SDS011;9970;-36.854;174.870;2022-11-20T01:08:14;3.30;;;3.30;;
19643;SDS011;9970;-36.854;174.870;2022-11-20T01:10:48;3.20;;;3.20;;
19643;SDS011;9970;-36.854;174.870;2022-11-20T01:13:21;3.20;;;3.20;;
19643;SDS011;9970;-36.854;174.870;2022-11-20T01:16:15;3.20;;;3.20;;
19643;SDS011;9970;-36.854;174.870;2022-11-20T01:18:47;3.20;;;3.20;;
19643;SDS011;9970;-36.854;174.870;2022-11-20T01:21:21;3.50;;;3.50;;
19643;SDS011;9970;-36.854;174.870;2022-11-20T01:23:55;3.30;;;3.30;;
19643;SDS011;9970;-36.854;174.870;2022-11-20T01:26:30;3.60;;;3.60;;
19643;SDS011;9970;-36.854;174.870;2022-11-20T01:29:04;3.87;;;3.87;;
19643;SDS011;9970;-36.854;174.870;2022-11-20T01:31:38;3.80;;;3.80;;
19643;SDS011;9970;-36.854;174.870;2022-11-20T01:34:12;3.70;;;3.70;;
19643;SDS011;9970;-36.854;174.870;2022-11-20T01:36:46;3.70;;;3.70;;
19643;SDS011;9970;-36.854;174.870;2022-11-20T01:39:20;4.17;;;4.17;;
19643;SDS011;9970;-36.854;174.870;2022-11-20T01:41:55;3.47;;;3.47;;
19643;SDS011;9970;-36.854;174.870;2022-11-20T01:44:52;3.87;;;3.87;;
19643;SDS011;9970;-36.854;174.870;2022-11-20T01:47:35;3.70;;;3.70;;
19643;SDS011;9970;-36.854;174.870;2022-11-20T01:50:14;3.90;;;3.90;;
19643;SDS011;9970;-36.854;174.870;2022-11-20T01:52:55;3.70;;;3.70;;
19643;SDS011;9970;-36.854;174.870;2022-11-20T01:55:30;4.00;;;4.00;;
19643;SDS011;9970;-36.854;174.870;2022-11-20T01:58:04;4.40;;;4.40;;
19643;SDS011;9970;-36.854;174.870;2022-11-20T02:00:38;4.40;;;4.40;;
19643;SDS011;9970;-36.854;174.870;2022-11-20T02:03:13;4.47;;;4.47;;
19643;SDS011;9970;-36.854;174.870;2022-11-20T02:08:35;4.70;;;4.70;;
19643;SDS011;9970;-36.854;174.870;2022-11-20T02:11:08;4.90;;;4.90;;
19643;SDS011;9970;-36.854;174.870;2022-11-20T02:13:42;5.30;;;5.30;;
19643;SDS011;9970;-36.854;174.870;2022-11-20T02:16:16;5.00;;;5.00;;
19643;SDS011;9970;-36.854;174.870;2022-11-20T02:18:56;4.80;;;4.80;;
19643;SDS011;9970;-36.854;174.870;2022-11-20T02:21:35;4.70;;;4.70;;
19643;SDS011;9970;-36.854;174.870;2022-11-20T02:24:14;4.60;;;4.60;;
19643;SDS011;9970;-36.854;174.870;2022-11-20T02:26:53;4.73;;;4.73;;
19643;SDS011;9970;-36.854;174.870;2022-11-20T02:29:32;4.70;;;4.70;;
19643;SDS011;9970;-36.854;174.870;2022-11-20T02:32:06;4.67;;;4.67;;
19643;SDS011;9970;-36.854;174.870;2022-11-20T02:34:40;4.77;;;4.77;;
19643;SDS011;9970;-36.854;174.870;2022-11-20T02:37:13;4.50;;;4.50;;
19643;SDS011;9970;-36.854;174.870;2022-11-20T02:39:47;4.40;;;4.40;;
19643;SDS011;9970;-36.854;174.870;2022-11-20T02:42:22;4.30;;;4.30;;
19643;SDS011;9970;-36.854;174.870;2022-11-20T02:44:55;5.00;;;5.00;;
19643;SDS011;9970;-36.854;174.870;2022-11-20T02:47:28;4.60;;;4.60;;
19643;SDS011;9970;-36.854;174.870;2022-11-20T02:50:02;4.70;;;4.70;;
19643;SDS011;9970;-36.854;174.870;2022-11-20T02:52:35;4.70;;;4.70;;
19643;SDS011;9970;-36.854;174.870;2022-11-20T02:55:09;4.70;;;4.70;;
19643;SDS011;9970;-36.854;174.870;2022-11-20T02:57:41;4.50;;;4.50;;
19643;SDS011;9970;-36.854;174.870;2022-11-20T03:00:15;4.40;;;4.40;;
19643;SDS011;9970;-36.854;174.870;2022-11-20T03:02:48;4.10;;;4.10;;
19643;SDS011;9970;-36.854;174.870;2022-11-20T03:05:21;3.90;;;3.90;;
19643;SDS011;9970;-36.854;174.870;2022-11-20T03:07:54;3.80;;;3.80;;
19643;SDS011;9970;-36.854;174.870;2022-11-20T03:10:27;4.20;;;4.20;;
19643;SDS011;9970;-36.854;174.870;2022-11-20T03:13:00;4.10;;;4.10;;
19643;SDS011;9970;-36.854;174.870;2022-11-20T03:15:33;4.00;;;4.00;;
19643;SDS011;9970;-36.854;174.870;2022-11-20T03:18:07;4.00;;;4.00;;
19643;SDS011;9970;-36.854;174.870;2022-11-20T03:20:40;3.70;;;3.70;;
19643;SDS011;9970;-36.854;174.870;2022-11-20T03:23:13;3.50;;;3.50;;
19643;SDS011;9970;-36.854;174.870;2022-11-20T03:25:46;3.60;;;3.60;;
19643;SDS011;9970;-36.854;174.870;2022-11-20T03:28:19;3.50;;;3.50;;
19643;SDS011;9970;-36.854;174.870;2022-11-20T03:30:52;3.30;;;3.30;;
19643;SDS011;9970;-36.854;174.870;2022-11-20T03:33:27;3.53;;;3.53;;
19643;SDS011;9970;-36.854;174.870;2022-11-20T03:36:03;3.37;;;3.37;;
19643;SDS011;9970;-36.854;174.870;2022-11-20T03:38:37;3.57;;;3.57;;
19643;SDS011;9970;-36.854;174.870;2022-11-20T03:41:11;3.60;;;3.60;;
19643;SDS011;9970;-36.854;174.870;2022-11-20T03:43:48;3.60;;;3.60;;
19643;SDS011;9970;-36.854;174.870;2022-11-20T03:46:22;3.40;;;3.40;;
19643;SDS011;9970;-36.854;174.870;2022-11-20T03:48:55;3.63;;;3.63;;
19643;SDS011;9970;-36.854;174.870;2022-11-20T03:51:29;3.60;;;3.60;;
19643;SDS011;9970;-36.854;174.870;2022-11-20T03:54:07;3.70;;;3.70;;
19643;SDS011;9970;-36.854;174.870;2022-11-20T03:56:41;3.60;;;3.60;;
19643;SDS011;9970;-36.854;174.870;2022-11-20T03:59:14;3.70;;;3.70;;
19643;SDS011;9970;-36.854;174.870;2022-11-20T04:01:47;3.50;;;3.50;;
19643;SDS011;9970;-36.854;174.870;2022-11-20T04:04:20;3.50;;;3.50;;
19643;SDS011;9970;-36.854;174.870;2022-11-20T04:06:53;3.50;;;3.50;;
19643;SDS011;9970;-36.854;174.870;2022-11-20T04:09:27;3.13;;;3.13;;
19643;SDS011;9970;-36.854;174.870;2022-11-20T04:12:00;3.47;;;3.47;;
19643;SDS011;9970;-36.854;174.870;2022-11-20T04:14:33;3.70;;;3.70;;
19643;SDS011;9970;-36.854;174.870;2022-11-20T04:17:06;3.63;;;3.63;;
19643;SDS011;9970;-36.854;174.870;2022-11-20T04:19:39;3.80;;;3.80;;
19643;SDS011;9970;-36.854;174.870;2022-11-20T04:22:12;3.70;;;3.70;;
19643;SDS011;9970;-36.854;174.870;2022-11-20T04:24:45;3.70;;;3.70;;
19643;SDS011;9970;-36.854;174.870;2022-11-20T04:27:18;3.90;;;3.90;;
19643;SDS011;9970;-36.854;174.870;2022-11-20T04:29:51;3.70;;;3.70;;
19643;SDS011;9970;-36.854;174.870;2022-11-20T04:32:24;3.50;;;3.50;;
19643;SDS011;9970;-36.854;174.870;2022-11-20T04:34:57;2.20;;;2.20;;
19643;SDS011;9970;-36.854;174.870;2022-11-20T04:37:30;2.10;;;2.10;;
19643;SDS011;9970;-36.854;174.870;2022-11-20T04:40:03;2.00;;;2.00;;
19643;SDS011;9970;-36.854;174.870;2022-11-20T04:42:37;1.70;;;1.70;;
19643;SDS011;9970;-36.854;174.870;2022-11-20T04:45:10;1.70;;;1.70;;
19643;SDS011;9970;-36.854;174.870;2022-11-20T04:47:43;1.50;;;1.50;;
19643;SDS011;9970;-36.854;174.870;2022-11-20T04:50:15;1.70;;;1.70;;
19643;SDS011;9970;-36.854;174.870;2022-11-20T04:52:48;1.70;;;1.70;;
19643;SDS011;9970;-36.854;174.870;2022-11-20T04:55:22;1.70;;;1.70;;
19643;SDS011;9970;-36.854;174.870;2022-11-20T04:57:56;1.80;;;1.80;;
19643;SDS011;9970;-36.854;174.870;2022-11-20T05:00:29;1.70;;;1.70;;
19643;SDS011;9970;-36.854;174.870;2022-11-20T05:03:02;1.80;;;1.80;;
19643;SDS011;9970;-36.854;174.870;2022-11-20T05:05:35;1.83;;;1.83;;
19643;SDS011;9970;-36.854;174.870;2022-11-20T05:08:08;1.80;;;1.80;;
19643;SDS011;9970;-36.854;174.870;2022-11-20T05:10:41;1.80;;;1.80;;
19643;SDS011;9970;-36.854;174.870;2022-11-20T05:13:14;1.80;;;1.80;;
19643;SDS011;9970;-36.854;174.870;2022-11-20T05:15:47;1.90;;;1.90;;
19643;SDS011;9970;-36.854;174.870;2022-11-20T05:18:20;1.70;;;1.70;;
19643;SDS011;9970;-36.854;174.870;2022-11-20T05:20:56;1.73;;;1.73;;
19643;SDS011;9970;-36.854;174.870;2022-11-20T05:23:30;1.70;;;1.70;;
19643;SDS011;9970;-36.854;174.870;2022-11-20T05:26:04;1.80;;;1.80;;
19643;SDS011;9970;-36.854;174.870;2022-11-20T05:28:37;1.70;;;1.70;;
19643;SDS011;9970;-36.854;174.870;2022-11-20T05:31:11;1.90;;;1.90;;
19643;SDS011;9970;-36.854;174.870;2022-11-20T05:33:47;1.80;;;1.80;;
19643;SDS011;9970;-36.854;174.870;2022-11-20T05:36:20;1.73;;;1.73;;
19643;SDS011;9970;-36.854;174.870;2022-11-20T05:38:53;1.70;;;1.70;;
19643;SDS011;9970;-36.854;174.870;2022-11-20T05:41:27;1.70;;;1.70;;
19643;SDS011;9970;-36.854;174.870;2022-11-20T05:44:01;1.63;;;1.63;;
19643;SDS011;9970;-36.854;174.870;2022-11-20T05:46:34;1.80;;;1.80;;
19643;SDS011;9970;-36.854;174.870;2022-11-20T05:49:07;1.80;;;1.80;;
19643;SDS011;9970;-36.854;174.870;2022-11-20T05:51:40;1.70;;;1.70;;
19643;SDS011;9970;-36.854;174.870;2022-11-20T05:54:13;1.80;;;1.80;;
19643;SDS011;9970;-36.854;174.870;2022-11-20T05:56:50;1.80;;;1.80;;
19643;SDS011;9970;-36.854;174.870;2022-11-20T05:59:24;1.90;;;1.90;;
19643;SDS011;9970;-36.854;174.870;2022-11-20T06:01:57;1.80;;;1.80;;
19643;SDS011;9970;-36.854;174.870;2022-11-20T06:04:30;2.00;;;2.00;;
19643;SDS011;9970;-36.854;174.870;2022-11-20T06:07:04;2.10;;;2.10;;
19643;SDS011;9970;-36.854;174.870;2022-11-20T06:09:37;2.10;;;2.10;;
19643;SDS011;9970;-36.854;174.870;2022-11-20T06:12:10;2.10;;;2.10;;
19643;SDS011;9970;-36.854;174.870;2022-11-20T06:14:43;2.10;;;2.10;;
19643;SDS011;9970;-36.854;174.870;2022-11-20T06:17:16;2.10;;;2.10;;
19643;SDS011;9970;-36.854;174.870;2022-11-20T06:19:49;2.00;;;2.00;;
19643;SDS011;9970;-36.854;174.870;2022-11-20T06:22:26;1.80;;;1.80;;
19643;SDS011;9970;-36.854;174.870;2022-11-20T06:25:02;1.80;;;1.80;;
19643;SDS011;9970;-36.854;174.870;2022-11-20T06:27:35;1.80;;;1.80;;
19643;SDS011;9970;-36.854;174.870;2022-11-20T06:30:09;1.80;;;1.80;;
19643;SDS011;9970;-36.854;174.870;2022-11-20T06:32:42;1.90;;;1.90;;
19643;SDS011;9970;-36.854;174.870;2022-11-20T06:35:15;2.00;;;2.00;;
19643;SDS011;9970;-36.854;174.870;2022-11-20T06:37:49;2.00;;;2.00;;
19643;SDS011;9970;-36.854;174.870;2022-11-20T06:40:22;2.30;;;2.30;;
19643;SDS011;9970;-36.854;174.870;2022-11-20T06:42:55;2.10;;;2.10;;
19643;SDS011;9970;-36.854;174.870;2022-11-20T06:45:28;2.10;;;2.10;;
19643;SDS011;9970;-36.854;174.870;2022-11-20T06:48:01;2.10;;;2.10;;
19643;SDS011;9970;-36.854;174.870;2022-11-20T06:50:34;2.20;;;2.20;;
19643;SDS011;9970;-36.854;174.870;2022-11-20T06:53:10;2.00;;;2.00;;
19643;SDS011;9970;-36.854;174.870;2022-11-20T06:55:48;2.20;;;2.20;;
19643;SDS011;9970;-36.854;174.870;2022-11-20T06:58:18;2.17;;;2.17;;
19643;SDS011;9970;-36.854;174.870;2022-11-20T07:00:51;2.20;;;2.20;;
19643;SDS011;9970;-36.854;174.870;2022-11-20T07:03:24;2.10;;;2.10;;
19643;SDS011;9970;-36.854;174.870;2022-11-20T07:05:57;2.00;;;2.00;;
19643;SDS011;9970;-36.854;174.870;2022-11-20T07:08:31;2.10;;;2.10;;
19643;SDS011;9970;-36.854;174.870;2022-11-20T07:11:05;2.13;;;2.13;;
19643;SDS011;9970;-36.854;174.870;2022-11-20T07:13:38;2.10;;;2.10;;
19643;SDS011;9970;-36.854;174.870;2022-11-20T07:16:12;2.07;;;2.07;;
19643;SDS011;9970;-36.854;174.870;2022-11-20T07:18:45;2.10;;;2.10;;
19643;SDS011;9970;-36.854;174.870;2022-11-20T07:21:18;2.00;;;2.00;;
19643;SDS011;9970;-36.854;174.870;2022-11-20T07:23:51;2.10;;;2.10;;
19643;SDS011;9970;-36.854;174.870;2022-11-20T07:26:24;2.30;;;2.30;;
19643;SDS011;9970;-36.854;174.870;2022-11-20T07:28:57;2.20;;;2.20;;
19643;SDS011;9970;-36.854;174.870;2022-11-20T07:31:30;2.20;;;2.20;;
19643;SDS011;9970;-36.854;174.870;2022-11-20T07:34:03;2.40;;;2.40;;
19643;SDS011;9970;-36.854;174.870;2022-11-20T07:36:37;2.40;;;2.40;;
19643;SDS011;9970;-36.854;174.870;2022-11-20T07:39:10;2.20;;;2.20;;
19643;SDS011;9970;-36.854;174.870;2022-11-20T07:41:43;2.20;;;2.20;;
19643;SDS011;9970;-36.854;174.870;2022-11-20T07:44:16;2.40;;;2.40;;
19643;SDS011;9970;-36.854;174.870;2022-11-20T07:46:49;2.10;;;2.10;;
19643;SDS011;9970;-36.854;174.870;2022-11-20T07:49:22;3.37;;;3.23;;
19643;SDS011;9970;-36.854;174.870;2022-11-20T07:51:55;2.30;;;2.30;;
19643;SDS011;9970;-36.854;174.870;2022-11-20T07:54:29;1.90;;;1.90;;
19643;SDS011;9970;-36.854;174.870;2022-11-20T07:57:02;1.70;;;1.70;;
19643;SDS011;9970;-36.854;174.870;2022-11-20T07:59:36;1.70;;;1.70;;
19643;SDS011;9970;-36.854;174.870;2022-11-20T08:02:13;1.80;;;1.80;;
19643;SDS011;9970;-36.854;174.870;2022-11-20T08:04:43;1.80;;;1.80;;
19643;SDS011;9970;-36.854;174.870;2022-11-20T08:07:16;2.00;;;2.00;;
19643;SDS011;9970;-36.854;174.870;2022-11-20T08:09:49;1.80;;;1.80;;
19643;SDS011;9970;-36.854;174.870;2022-11-20T08:12:22;1.80;;;1.80;;
19643;SDS011;9970;-36.854;174.870;2022-11-20T08:15:13;1.80;;;1.80;;
19643;SDS011;9970;-36.854;174.870;2022-11-20T08:17:46;1.90;;;1.90;;
19643;SDS011;9970;-36.854;174.870;2022-11-20T08:20:20;2.03;;;2.03;;
19643;SDS011;9970;-36.854;174.870;2022-11-20T08:22:53;2.00;;;2.00;;
19643;SDS011;9970;-36.854;174.870;2022-11-20T08:25:31;1.90;;;1.90;;
19643;SDS011;9970;-36.854;174.870;2022-11-20T08:28:05;1.90;;;1.90;;
19643;SDS011;9970;-36.854;174.870;2022-11-20T08:30:40;1.80;;;1.80;;
19643;SDS011;9970;-36.854;174.870;2022-11-20T08:33:13;1.80;;;1.80;;
19643;SDS011;9970;-36.854;174.870;2022-11-20T08:35:47;1.70;;;1.70;;
19643;SDS011;9970;-36.854;174.870;2022-11-20T08:38:20;1.80;;;1.80;;
19643;SDS011;9970;-36.854;174.870;2022-11-20T08:40:55;2.10;;;2.10;;
19643;SDS011;9970;-36.854;174.870;2022-11-20T08:43:51;1.90;;;1.90;;
19643;SDS011;9970;-36.854;174.870;2022-11-20T08:46:26;1.90;;;1.90;;
19643;SDS011;9970;-36.854;174.870;2022-11-20T08:49:13;1.80;;;1.80;;
19643;SDS011;9970;-36.854;174.870;2022-11-20T08:51:48;1.90;;;1.90;;
19643;SDS011;9970;-36.854;174.870;2022-11-20T08:54:22;2.00;;;2.00;;
19643;SDS011;9970;-36.854;174.870;2022-11-20T08:56:55;1.90;;;1.90;;
19643;SDS011;9970;-36.854;174.870;2022-11-20T08:59:28;1.90;;;1.90;;
19643;SDS011;9970;-36.854;174.870;2022-11-20T09:02:03;2.07;;;2.07;;
19643;SDS011;9970;-36.854;174.870;2022-11-20T09:04:36;2.00;;;2.00;;
19643;SDS011;9970;-36.854;174.870;2022-11-20T09:07:09;2.20;;;2.20;;
19643;SDS011;9970;-36.854;174.870;2022-11-20T09:09:42;2.07;;;2.07;;
19643;SDS011;9970;-36.854;174.870;2022-11-20T09:12:16;2.20;;;2.20;;
19643;SDS011;9970;-36.854;174.870;2022-11-20T09:14:49;2.10;;;2.10;;
19643;SDS011;9970;-36.854;174.870;2022-11-20T09:17:23;2.10;;;2.10;;
19643;SDS011;9970;-36.854;174.870;2022-11-20T09:19:56;2.10;;;2.10;;
19643;SDS011;9970;-36.854;174.870;2022-11-20T09:22:28;2.33;;;2.33;;
19643;SDS011;9970;-36.854;174.870;2022-11-20T09:25:02;2.17;;;2.17;;
19643;SDS011;9970;-36.854;174.870;2022-11-20T09:27:36;2.00;;;2.00;;
19643;SDS011;9970;-36.854;174.870;2022-11-20T09:30:11;2.00;;;2.00;;
19643;SDS011;9970;-36.854;174.870;2022-11-20T09:32:47;2.00;;;2.00;;
19643;SDS011;9970;-36.854;174.870;2022-11-20T09:35:19;2.10;;;2.10;;
19643;SDS011;9970;-36.854;174.870;2022-11-20T09:37:52;2.10;;;2.10;;
19643;SDS011;9970;-36.854;174.870;2022-11-20T09:40:26;2.10;;;2.10;;
19643;SDS011;9970;-36.854;174.870;2022-11-20T09:48:46;2.10;;;2.10;;
19643;SDS011;9970;-36.854;174.870;2022-11-20T09:51:39;2.20;;;2.20;;
19643;SDS011;9970;-36.854;174.870;2022-11-20T09:54:21;2.30;;;2.30;;
19643;SDS011;9970;-36.854;174.870;2022-11-20T09:56:59;2.10;;;2.10;;
19643;SDS011;9970;-36.854;174.870;2022-11-20T09:59:38;2.50;;;2.50;;
19643;SDS011;9970;-36.854;174.870;2022-11-20T10:05:10;2.40;;;2.40;;
19643;SDS011;9970;-36.854;174.870;2022-11-20T10:07:44;2.40;;;2.40;;
19643;SDS011;9970;-36.854;174.870;2022-11-20T10:13:09;2.40;;;2.40;;
19643;SDS011;9970;-36.854;174.870;2022-11-20T10:16:17;2.50;;;2.50;;
19643;SDS011;9970;-36.854;174.870;2022-11-20T10:24:32;2.60;;;2.60;;
19643;SDS011;9970;-36.854;174.870;2022-11-20T10:30:09;2.50;;;2.50;;
19643;SDS011;9970;-36.854;174.870;2022-11-20T10:32:46;2.60;;;2.60;;
19643;SDS011;9970;-36.854;174.870;2022-11-20T10:38:00;2.40;;;2.40;;
19643;SDS011;9970;-36.854;174.870;2022-11-20T10:40:47;2.60;;;2.60;;
19643;SDS011;9970;-36.854;174.870;2022-11-20T10:43:23;2.50;;;2.50;;
19643;SDS011;9970;-36.854;174.870;2022-11-20T10:45:53;2.50;;;2.50;;
19643;SDS011;9970;-36.854;174.870;2022-11-20T10:48:30;2.57;;;2.57;;
19643;SDS011;9970;-36.854;174.870;2022-11-20T10:51:12;2.50;;;2.50;;
19643;SDS011;9970;-36.854;174.870;2022-11-20T10:59:26;2.60;;;2.60;;
19643;SDS011;9970;-36.854;174.870;2022-11-20T11:01:56;2.40;;;2.40;;
19643;SDS011;9970;-36.854;174.870;2022-11-20T11:09:55;2.50;;;2.50;;
19643;SDS011;9970;-36.854;174.870;2022-11-20T11:12:28;2.50;;;2.50;;
19643;SDS011;9970;-36.854;174.870;2022-11-20T11:15:01;2.60;;;2.60;;
19643;SDS011;9970;-36.854;174.870;2022-11-20T11:17:34;2.60;;;2.60;;
19643;SDS011;9970;-36.854;174.870;2022-11-20T11:20:17;2.60;;;2.60;;
19643;SDS011;9970;-36.854;174.870;2022-11-20T11:22:59;2.70;;;2.70;;
19643;SDS011;9970;-36.854;174.870;2022-11-20T11:25:30;2.60;;;2.60;;
19643;SDS011;9970;-36.854;174.870;2022-11-20T11:28:17;2.77;;;2.77;;
19643;SDS011;9970;-36.854;174.870;2022-11-20T11:30:52;2.70;;;2.70;;
19643;SDS011;9970;-36.854;174.870;2022-11-20T11:33:26;2.60;;;2.60;;
19643;SDS011;9970;-36.854;174.870;2022-11-20T11:36:01;2.40;;;2.40;;
19643;SDS011;9970;-36.854;174.870;2022-11-20T11:38:40;2.53;;;2.53;;
19643;SDS011;9970;-36.854;174.870;2022-11-20T11:41:20;2.60;;;2.60;;
19643;SDS011;9970;-36.854;174.870;2022-11-20T11:43:58;2.60;;;2.60;;
19643;SDS011;9970;-36.854;174.870;2022-11-20T11:47:11;2.60;;;2.60;;
19643;SDS011;9970;-36.854;174.870;2022-11-20T11:52:46;2.40;;;2.40;;
19643;SDS011;9970;-36.854;174.870;2022-11-20T12:00:57;2.27;;;2.27;;
19643;SDS011;9970;-36.854;174.870;2022-11-20T12:03:38;2.40;;;2.40;;
19643;SDS011;9970;-36.854;174.870;2022-11-20T12:06:16;2.50;;;2.50;;
19643;SDS011;9970;-36.854;174.870;2022-11-20T12:08:53;2.60;;;2.60;;
19643;SDS011;9970;-36.854;174.870;2022-11-20T12:14:18;2.60;;;2.60;;
19643;SDS011;9970;-36.854;174.870;2022-11-20T12:16:53;2.50;;;2.50;;
19643;SDS011;9970;-36.854;174.870;2022-11-20T12:19:27;2.70;;;2.70;;
19643;SDS011;9970;-36.854;174.870;2022-11-20T12:24:55;2.50;;;2.50;;
19643;SDS011;9970;-36.854;174.870;2022-11-20T12:30:29;2.60;;;2.60;;
19643;SDS011;9970;-36.854;174.870;2022-11-20T12:33:27;2.50;;;2.50;;
19643;SDS011;9970;-36.854;174.870;2022-11-20T12:36:12;2.40;;;2.40;;
19643;SDS011;9970;-36.854;174.870;2022-11-20T12:38:51;2.50;;;2.50;;
19643;SDS011;9970;-36.854;174.870;2022-11-20T12:44:52;2.50;;;2.50;;
19643;SDS011;9970;-36.854;174.870;2022-11-20T12:50:50;2.60;;;2.60;;
19643;SDS011;9970;-36.854;174.870;2022-11-20T12:53:42;2.60;;;2.60;;
19643;SDS011;9970;-36.854;174.870;2022-11-20T13:07:10;2.70;;;2.70;;
19643;SDS011;9970;-36.854;174.870;2022-11-20T13:09:46;2.90;;;2.90;;
19643;SDS011;9970;-36.854;174.870;2022-11-20T13:18:07;2.70;;;2.70;;
19643;SDS011;9970;-36.854;174.870;2022-11-20T13:20:48;2.70;;;2.70;;
19643;SDS011;9970;-36.854;174.870;2022-11-20T13:23:28;2.80;;;2.80;;
19643;SDS011;9970;-36.854;174.870;2022-11-20T13:31:43;2.80;;;2.80;;
19643;SDS011;9970;-36.854;174.870;2022-11-20T13:34:25;2.80;;;2.80;;
19643;SDS011;9970;-36.854;174.870;2022-11-20T13:36:57;2.80;;;2.80;;
19643;SDS011;9970;-36.854;174.870;2022-11-20T13:39:37;2.70;;;2.70;;
19643;SDS011;9970;-36.854;174.870;2022-11-20T13:44:50;2.63;;;2.63;;
19643;SDS011;9970;-36.854;174.870;2022-11-20T13:47:28;2.53;;;2.53;;
19643;SDS011;9970;-36.854;174.870;2022-11-20T13:50:02;2.67;;;2.67;;
19643;SDS011;9970;-36.854;174.870;2022-11-20T13:52:49;2.50;;;2.50;;
19643;SDS011;9970;-36.854;174.870;2022-11-20T14:01:26;2.70;;;2.70;;
19643;SDS011;9970;-36.854;174.870;2022-11-20T14:04:08;2.90;;;2.90;;
19643;SDS011;9970;-36.854;174.870;2022-11-20T14:06:43;2.50;;;2.50;;
19643;SDS011;9970;-36.854;174.870;2022-11-20T14:09:31;2.80;;;2.80;;
19643;SDS011;9970;-36.854;174.870;2022-11-20T14:12:17;2.70;;;2.70;;
19643;SDS011;9970;-36.854;174.870;2022-11-20T14:14:46;2.50;;;2.50;;
19643;SDS011;9970;-36.854;174.870;2022-11-20T14:17:22;2.90;;;2.90;;
19643;SDS011;9970;-36.854;174.870;2022-11-20T14:20:06;2.80;;;2.80;;
19643;SDS011;9970;-36.854;174.870;2022-11-20T14:22:36;2.80;;;2.80;;
19643;SDS011;9970;-36.854;174.870;2022-11-20T14:27:53;2.73;;;2.73;;
19643;SDS011;9970;-36.854;174.870;2022-11-20T14:30:29;2.90;;;2.90;;
19643;SDS011;9970;-36.854;174.870;2022-11-20T14:33:03;2.80;;;2.80;;
19643;SDS011;9970;-36.854;174.870;2022-11-20T14:35:36;2.80;;;2.80;;
19643;SDS011;9970;-36.854;174.870;2022-11-20T14:38:27;2.50;;;2.50;;
19643;SDS011;9970;-36.854;174.870;2022-11-20T14:41:07;2.67;;;2.67;;
19643;SDS011;9970;-36.854;174.870;2022-11-20T14:43:44;2.80;;;2.80;;
19643;SDS011;9970;-36.854;174.870;2022-11-20T14:46:17;2.60;;;2.60;;
19643;SDS011;9970;-36.854;174.870;2022-11-20T14:49:00;2.60;;;2.60;;
19643;SDS011;9970;-36.854;174.870;2022-11-20T14:54:09;2.60;;;2.60;;
19643;SDS011;9970;-36.854;174.870;2022-11-20T14:57:05;2.70;;;2.70;;
19643;SDS011;9970;-36.854;174.870;2022-11-20T14:59:27;2.70;;;2.70;;
19643;SDS011;9970;-36.854;174.870;2022-11-20T15:02:03;2.70;;;2.70;;
19643;SDS011;9970;-36.854;174.870;2022-11-20T15:04:46;2.70;;;2.70;;
19643;SDS011;9970;-36.854;174.870;2022-11-20T15:07:24;2.80;;;2.80;;
19643;SDS011;9970;-36.854;174.870;2022-11-20T15:10:05;2.60;;;2.60;;
19643;SDS011;9970;-36.854;174.870;2022-11-20T15:12:46;2.80;;;2.80;;
19643;SDS011;9970;-36.854;174.870;2022-11-20T15:15:23;2.77;;;2.77;;
19643;SDS011;9970;-36.854;174.870;2022-11-20T15:18:02;2.60;;;2.60;;
19643;SDS011;9970;-36.854;174.870;2022-11-20T15:20:36;2.90;;;2.90;;
19643;SDS011;9970;-36.854;174.870;2022-11-20T15:23:15;2.50;;;2.50;;
19643;SDS011;9970;-36.854;174.870;2022-11-20T15:25:45;2.63;;;2.63;;
19643;SDS011;9970;-36.854;174.870;2022-11-20T15:28:22;2.77;;;2.77;;
19643;SDS011;9970;-36.854;174.870;2022-11-20T15:31:02;2.90;;;2.90;;
19643;SDS011;9970;-36.854;174.870;2022-11-20T15:33:36;2.80;;;2.80;;
19643;SDS011;9970;-36.854;174.870;2022-11-20T15:36:09;2.67;;;2.67;;
19643;SDS011;9970;-36.854;174.870;2022-11-20T15:38:42;2.70;;;2.70;;
19643;SDS011;9970;-36.854;174.870;2022-11-20T15:41:15;2.60;;;2.60;;
19643;SDS011;9970;-36.854;174.870;2022-11-20T15:43:48;2.70;;;2.70;;
19643;SDS011;9970;-36.854;174.870;2022-11-20T15:46:30;2.70;;;2.70;;
19643;SDS011;9970;-36.854;174.870;2022-11-20T15:49:00;2.60;;;2.60;;
19643;SDS011;9970;-36.854;174.870;2022-11-20T15:51:37;2.70;;;2.70;;
19643;SDS011;9970;-36.854;174.870;2022-11-20T15:54:12;2.80;;;2.80;;
19643;SDS011;9970;-36.854;174.870;2022-11-20T15:56:48;2.80;;;2.80;;
19643;SDS011;9970;-36.854;174.870;2022-11-20T15:59:24;2.60;;;2.60;;
19643;SDS011;9970;-36.854;174.870;2022-11-20T16:01:57;2.60;;;2.60;;
19643;SDS011;9970;-36.854;174.870;2022-11-20T16:04:30;2.40;;;2.40;;
19643;SDS011;9970;-36.854;174.870;2022-11-20T16:07:04;2.70;;;2.70;;
19643;SDS011;9970;-36.854;174.870;2022-11-20T16:09:37;2.50;;;2.50;;
19643;SDS011;9970;-36.854;174.870;2022-11-20T16:12:10;2.50;;;2.50;;
19643;SDS011;9970;-36.854;174.870;2022-11-20T16:14:44;2.50;;;2.50;;
19643;SDS011;9970;-36.854;174.870;2022-11-20T16:17:18;2.27;;;2.27;;
19643;SDS011;9970;-36.854;174.870;2022-11-20T16:19:53;2.40;;;2.40;;
19643;SDS011;9970;-36.854;174.870;2022-11-20T16:22:26;2.30;;;2.30;;
19643;SDS011;9970;-36.854;174.870;2022-11-20T16:24:58;2.07;;;2.07;;
19643;SDS011;9970;-36.854;174.870;2022-11-20T16:27:32;2.00;;;2.00;;
19643;SDS011;9970;-36.854;174.870;2022-11-20T16:30:05;2.00;;;2.00;;
19643;SDS011;9970;-36.854;174.870;2022-11-20T16:32:39;2.00;;;2.00;;
19643;SDS011;9970;-36.854;174.870;2022-11-20T16:35:12;2.10;;;2.10;;
19643;SDS011;9970;-36.854;174.870;2022-11-20T16:37:45;2.00;;;2.00;;
19643;SDS011;9970;-36.854;174.870;2022-11-20T16:40:18;2.00;;;2.00;;
19643;SDS011;9970;-36.854;174.870;2022-11-20T16:42:52;2.20;;;2.20;;
19643;SDS011;9970;-36.854;174.870;2022-11-20T16:45:26;2.10;;;2.10;;